Time;durP1;ratioP1;P1;durP2;ratioP2;P2;SDS_P1;SDS_P2;PMS_P1;PMS_P2;Temp;Humidity;BMP_temperature;BMP_pressure;BME280_temperature;BME280_humidity;BME280_pressure;Samples;Min_cycle;Max_cycle;Signal;HPM_P1;HPM_P2
2022/08/21 00:01:59;;;;;;;10.43;3.63;;;;;;;;;;5043781;28;20124;-74
2022/08/21 00:04:25;;;;;;;9.52;3.10;;;;;;;;;;5059362;28;20111;-74
2022/08/21 00:06:51;;;;;;;8.82;3.55;;;;;;;;;;5045482;28;20390;-74
2022/08/21 00:09:18;;;;;;;10.15;3.65;;;;;;;;;;5036496;28;20116;-73
2022/08/21 00:11:44;;;;;;;9.93;2.75;;;;;;;;;;5065078;28;20025;-74
2022/08/21 00:14:11;;;;;;;7.53;2.67;;;;;;;;;;5040541;28;20024;-76
2022/08/21 00:16:37;;;;;;;9.27;2.67;;;;;;;;;;5066794;28;20036;-73
2022/08/21 00:19:03;;;;;;;9.07;2.97;;;;;;;;;;5047915;28;20061;-74
2022/08/21 00:21:29;;;;;;;4.88;2.50;;;;;;;;;;5046667;28;20025;-72
2022/08/21 00:23:55;;;;;;;8.40;2.70;;;;;;;;;;5035880;28;20082;-73
2022/08/21 00:26:21;;;;;;;8.60;3.28;;;;;;;;;;5051224;28;20119;-73
2022/08/21 00:28:48;;;;;;;8.68;2.80;;;;;;;;;;5049852;28;20029;-74
2022/08/21 00:31:15;;;;;;;8.63;3.08;;;;;;;;;;5043188;28;20111;-74
2022/08/21 00:33:41;;;;;;;7.57;2.95;;;;;;;;;;5033589;28;20025;-73
2022/08/21 00:36:07;;;;;;;7.20;3.00;;;;;;;;;;5050677;28;20376;-73
2022/08/21 00:38:33;;;;;;;8.90;3.00;;;;;;;;;;5053814;28;20029;-73
2022/08/21 00:41:00;;;;;;;4.97;2.88;;;;;;;;;;5059515;28;20030;-73
2022/08/21 00:43:28;;;;;;;7.40;3.70;;;;;;;;;;5052434;28;20041;-73
2022/08/21 00:45:55;;;;;;;10.60;3.25;;;;;;;;;;5046682;28;20041;-73
2022/08/21 00:48:21;;;;;;;12.65;4.22;;;;;;;;;;5055549;28;20063;-73
2022/08/21 00:51:08;;;;;;;11.48;4.05;;;;;;;;;;5030584;28;20072;-72
2022/08/21 00:53:37;;;;;;;8.80;3.40;;;;;;;;;;5035196;28;20091;-73
2022/08/21 00:56:03;;;;;;;14.20;4.13;;;;;;;;;;5044728;28;20120;-75
2022/08/21 00:58:30;;;;;;;7.45;3.35;;;;;;;;;;5041358;28;20512;-73
2022/08/21 01:00:58;;;;;;;8.75;3.45;;;;;;;;;;5041044;28;20481;-73
2022/08/21 01:03:25;;;;;;;8.15;3.47;;;;;;;;;;5054112;28;20871;-73
2022/08/21 01:05:51;;;;;;;9.60;3.60;;;;;;;;;;5053774;28;20881;-73
2022/08/21 01:08:18;;;;;;;8.80;3.42;;;;;;;;;;5038745;28;20108;-73
2022/08/21 01:10:44;;;;;;;6.45;3.30;;;;;;;;;;5039515;28;20037;-73
2022/08/21 01:13:12;;;;;;;10.40;5.25;;;;;;;;;;5060336;28;20070;-73
2022/08/21 01:15:39;;;;;;;8.20;3.75;;;;;;;;;;5062283;28;20318;-76
2022/08/21 01:18:07;;;;;;;9.35;3.47;;;;;;;;;;5070379;28;20060;-73
2022/08/21 01:20:34;;;;;;;8.07;3.30;;;;;;;;;;5076228;28;20033;-72
2022/08/21 01:23:01;;;;;;;6.60;3.65;;;;;;;;;;5055984;28;20039;-73
2022/08/21 01:25:27;;;;;;;9.13;3.67;;;;;;;;;;5052787;28;20040;-73
2022/08/21 01:27:53;;;;;;;8.02;4.03;;;;;;;;;;5068006;28;20029;-73
2022/08/21 01:30:27;;;;;;;10.82;4.22;;;;;;;;;;5052494;28;20114;-73
2022/08/21 01:32:53;;;;;;;7.05;3.97;;;;;;;;;;5055435;28;20052;-74
2022/08/21 01:35:20;;;;;;;10.82;3.67;;;;;;;;;;5056868;28;20097;-73
2022/08/21 01:37:46;;;;;;;6.60;4.13;;;;;;;;;;5047226;28;20033;-73
2022/08/21 01:40:13;;;;;;;6.95;3.97;;;;;;;;;;5049002;28;20040;-73
2022/08/21 01:42:39;;;;;;;10.00;3.95;;;;;;;;;;5058360;28;20037;-73
2022/08/21 01:45:07;;;;;;;8.18;4.22;;;15.20;99.90;;;;;;5047621;28;20426;-74
2022/08/21 01:47:33;;;;;;;9.13;4.53;;;;;;;;;;5053407;28;20025;-74
2022/08/21 01:49:59;;;;;;;7.63;4.57;;;;;;;;;;5055284;28;20032;-74
2022/08/21 01:52:26;;;;;;;11.43;4.30;;;;;;;;;;5044224;28;20037;-74
2022/08/21 01:54:52;;;;;;;14.68;6.35;;;;;;;;;;5040185;28;20033;-73
2022/08/21 01:57:18;;;;;;;10.60;4.85;;;;;;;;;;5062074;28;20031;-73
2022/08/21 01:59:44;;;;;;;11.63;5.13;;;;;;;;;;5069305;28;20043;-73
2022/08/21 02:02:10;;;;;;;9.45;4.68;;;;;;;;;;5041794;28;20025;-74
2022/08/21 02:04:36;;;;;;;9.43;5.30;;;;;;;;;;5047958;28;20038;-74
2022/08/21 02:07:03;;;;;;;14.75;4.47;;;;;;;;;;5060198;28;20024;-74
2022/08/21 02:09:29;;;;;;;15.98;5.00;;;;;;;;;;5054889;28;20033;-74
2022/08/21 02:11:55;;;;;;;10.43;5.60;;;;;;;;;;5063834;28;20074;-74
2022/08/21 02:14:21;;;;;;;15.43;6.03;;;;;;;;;;5025805;28;20536;-74
2022/08/21 02:16:47;;;;;;;12.95;5.18;;;;;;;;;;5043239;28;20124;-74
2022/08/21 02:19:15;;;;;;;11.15;5.55;;;;;;;;;;5042921;28;20172;-74
2022/08/21 02:21:41;;;;;;;10.07;5.45;;;;;;;;;;5070265;28;20028;-73
2022/08/21 02:24:08;;;;;;;12.02;5.60;;;;;;;;;;5051685;28;20489;-73
2022/08/21 02:26:34;;;;;;;12.50;4.97;;;;;;;;;;5048177;28;20040;-73
2022/08/21 02:29:01;;;;;;;14.15;5.72;;;;;;;;;;5052406;28;20037;-74
2022/08/21 02:31:27;;;;;;;12.25;5.20;;;;;;;;;;5049552;28;20091;-76
2022/08/21 02:33:53;;;;;;;15.95;6.55;;;;;;;;;;5037676;28;20040;-74
2022/08/21 02:36:19;;;;;;;11.02;4.82;;;;;;;;;;5043979;28;20033;-76
2022/08/21 02:38:45;;;;;;;12.75;5.40;;;;;;;;;;5052329;28;20129;-73
2022/08/21 02:41:13;;;;;;;11.05;5.07;;;;;;;;;;5049010;28;20037;-73
2022/08/21 02:43:39;;;;;;;8.65;5.25;;;;;;;;;;5043958;28;20242;-73
2022/08/21 02:46:06;;;;;;;10.93;5.05;;;;;;;;;;5054292;28;20128;-73
2022/08/21 02:48:32;;;;;;;7.90;4.90;;;;;;;;;;5049433;28;20060;-73
2022/08/21 02:51:01;;;;;;;11.80;4.97;;;;;;;;;;5037852;28;20017;-73
2022/08/21 02:53:28;;;;;;;9.02;4.50;;;;;;;;;;5046487;28;20033;-74
2022/08/21 02:55:54;;;;;;;11.02;5.50;;;;;;;;;;5050989;28;20362;-74
2022/08/21 02:58:25;;;;;;;11.55;5.10;;;;;;;;;;5033410;28;20114;-73
2022/08/21 03:00:51;;;;;;;13.75;5.45;;;;;;;;;;5048481;28;20407;-74
2022/08/21 03:03:17;;;;;;;10.68;6.22;;;;;;;;;;5050707;28;20025;-74
2022/08/21 03:05:44;;;;;;;13.05;5.35;;;;;;;;;;5049337;28;20076;-73
2022/08/21 03:08:11;;;;;;;10.75;4.90;;;;;;;;;;5029789;28;20034;-73
2022/08/21 03:10:39;;;;;;;10.30;5.07;;;;;;;;;;5049372;28;20044;-77
2022/08/21 03:13:05;;;;;;;9.20;4.90;;;;;;;;;;5060963;28;20159;-75
2022/08/21 03:15:31;;;;;;;13.93;5.30;;;;;;;;;;5049718;28;20039;-73
2022/08/21 03:17:57;;;;;;;10.98;5.15;;;;;;;;;;5046859;28;20130;-74
2022/08/21 03:20:24;;;;;;;15.07;4.70;;;;;;;;;;5048071;28;20481;-74
2022/08/21 03:22:51;;;;;;;12.57;5.38;;;;;;;;;;5051067;28;20107;-74
2022/08/21 03:25:17;;;;;;;14.57;5.50;;;;;;;;;;5030591;28;20034;-74
2022/08/21 03:27:43;;;;;;;11.30;5.68;;;;;;;;;;5058133;28;20052;-74
2022/08/21 03:30:10;;;;;;;13.55;4.93;;;;;;;;;;5049759;28;20128;-73
2022/08/21 03:32:36;;;;;;;8.50;4.60;;;;;;;;;;5045870;28;20029;-74
2022/08/21 03:35:03;;;;;;;9.80;4.95;;;;;;;;;;5045878;28;24960;-74
2022/08/21 03:37:29;;;;;;;8.13;5.97;;;;;;;;;;5056015;28;20691;-74
2022/08/21 03:39:55;;;;;;;9.70;4.78;;;;;;;;;;5046834;28;20043;-74
2022/08/21 03:42:21;;;;;;;13.02;6.03;;;;;;;;;;5032502;28;20025;-73
2022/08/21 03:44:47;;;;;;;13.68;6.45;;;;;;;;;;5029273;28;20025;-74
2022/08/21 03:47:13;;;;;;;8.55;5.18;;;;;;;;;;5051621;28;20086;-74
2022/08/21 03:49:39;;;;;;;15.15;4.90;;;;;;;;;;5036594;28;20028;-76
2022/08/21 03:52:05;;;;;;;16.33;5.82;;;;;;;;;;5044674;28;20028;-74
2022/08/21 03:54:31;;;;;;;10.35;5.50;;;;;;;;;;5050825;28;20037;-75
2022/08/21 03:56:58;;;;;;;9.85;5.80;;;;;;;;;;5045246;28;20075;-74
2022/08/21 03:59:24;;;;;;;14.95;5.80;;;;;;;;;;5054177;28;20040;-74
2022/08/21 04:02:00;;;;;;;14.25;6.53;;;;;;;;;;5050774;28;20037;-74
2022/08/21 04:04:27;;;;;;;12.02;6.18;;;;;;;;;;5044906;28;20116;-75
2022/08/21 04:06:53;;;;;;;9.88;5.75;;;;;;;;;;5061553;28;20025;-76
2022/08/21 04:09:19;;;;;;;15.63;6.10;;;;;;;;;;5049824;28;20064;-73
2022/08/21 04:11:46;;;;;;;15.93;5.88;;;;;;;;;;5086149;28;20183;-73
2022/08/21 04:14:13;;;;;;;12.85;6.22;;;;;;;;;;5043448;28;20033;-73
2022/08/21 04:16:39;;;;;;;13.18;6.57;;;;;;;;;;5032473;28;20083;-74
2022/08/21 04:19:05;;;;;;;10.88;5.75;;;;;;;;;;5047286;28;20056;-74
2022/08/21 04:21:31;;;;;;;11.98;6.30;;;;;;;;;;5069314;28;20105;-74
2022/08/21 04:23:59;;;;;;;12.05;5.50;;;;;;;;;;5059508;28;20028;-74
2022/08/21 04:26:25;;;;;;;12.07;6.20;;;;;;;;;;5040706;28;20029;-74
2022/08/21 04:28:52;;;;;;;16.15;5.82;;;;;;;;;;5037738;28;20047;-74
2022/08/21 04:31:18;;;;;;;14.77;5.88;;;;;;;;;;5065562;28;20492;-74
2022/08/21 04:33:44;;;;;;;12.70;6.35;;;;;;;;;;5060382;28;20473;-75
2022/08/21 04:36:10;;;;;;;17.48;6.65;;;;;;;;;;5033764;28;20034;-74
2022/08/21 04:38:36;;;;;;;12.98;6.07;;;;;;;;;;5046213;28;20072;-74
2022/08/21 04:41:02;;;;;;;11.55;5.78;;;;;;;;;;5058808;28;20132;-75
2022/08/21 04:43:28;;;;;;;10.15;5.47;;;;;;;;;;5039897;28;20369;-74
2022/08/21 04:45:55;;;;;;;15.27;6.07;;;;;;;;;;5041017;28;20048;-76
2022/08/21 04:48:23;;;;;;;13.65;6.50;;;14.80;99.90;;;;;;5042835;28;20522;-74
2022/08/21 04:50:56;;;;;;;10.40;5.55;;;;;;;;;;5036430;28;20037;-74
2022/08/21 04:53:25;;;;;;;15.85;6.53;;;;;;;;;;5044917;28;20029;-74
2022/08/21 04:55:53;;;;;;;11.10;5.32;;;;;;;;;;5042247;28;20409;-74
2022/08/21 04:58:20;;;;;;;9.40;5.30;;;;;;;;;;5043732;28;20033;-74
2022/08/21 05:00:47;;;;;;;21.25;6.82;;;;;;;;;;5042775;28;20520;-74
2022/08/21 05:03:14;;;;;;;16.30;6.65;;;;;;;;;;5070713;28;20017;-75
2022/08/21 05:05:41;;;;;;;204.52;161.55;;;;;;;;;;5037708;28;20449;-75
2022/08/21 05:08:07;;;;;;;18.25;7.10;;;;;;;;;;5046613;28;20044;-73
2022/08/21 05:10:34;;;;;;;30.67;17.27;;;;;;;;;;5053344;28;20083;-73
2022/08/21 05:13:00;;;;;;;19.27;6.18;;;;;;;;;;5041954;28;20028;-73
2022/08/21 05:15:27;;;;;;;14.40;6.13;;;;;;;;;;5069404;28;20040;-73
2022/08/21 05:17:53;;;;;;;12.18;5.97;;;;;;;;;;5051271;28;20057;-75
2022/08/21 05:20:19;;;;;;;13.48;5.32;;;;;;;;;;5037966;28;20037;-73
2022/08/21 05:22:45;;;;;;;16.92;6.35;;;;;;;;;;5051442;28;20362;-73
2022/08/21 05:25:12;;;;;;;17.92;6.63;;;;;;;;;;5041266;28;20104;-73
2022/08/21 05:27:38;;;;;;;12.80;5.50;;;;;;;;;;5072175;28;20495;-74
2022/08/21 05:30:05;;;;;;;19.45;5.75;;;;;;;;;;5053353;28;20043;-75
2022/08/21 05:32:31;;;;;;;9.38;5.35;;;;;;;;;;5064450;28;20033;-74
2022/08/21 05:34:57;;;;;;;11.98;5.90;;;;;;;;;;5051935;28;20117;-74
2022/08/21 05:37:23;;;;;;;16.10;6.00;;;;;;;;;;5072121;28;20032;-74
2022/08/21 05:39:49;;;;;;;13.00;5.75;;;;;;;;;;5055420;28;20098;-74
2022/08/21 05:42:15;;;;;;;15.77;5.72;;;;;;;;;;5056104;28;20456;-74
2022/08/21 05:44:42;;;;;;;11.50;4.78;;;;;;;;;;5061367;28;20035;-74
2022/08/21 05:47:10;;;;;;;11.70;5.60;;;15.30;99.90;;;;;;5042585;28;20440;-75
2022/08/21 05:49:36;;;;;;;14.90;5.82;;;;;;;;;;5053792;28;20064;-74
2022/08/21 05:52:03;;;;;;;16.60;4.85;;;;;;;;;;5050460;28;20021;-75
2022/08/21 05:54:29;;;;;;;17.75;6.82;;;;;;;;;;5036022;28;20033;-75
2022/08/21 05:56:55;;;;;;;22.10;12.15;;;;;;;;;;5046431;28;20043;-74
2022/08/21 05:59:21;;;;;;;16.05;6.35;;;;;;;;;;5043723;28;20041;-75
2022/08/21 06:01:48;;;;;;;15.02;6.10;;;;;;;;;;5042551;28;20027;-73
2022/08/21 06:04:14;;;;;;;13.00;5.13;;;;;;;;;;5044399;28;20029;-75
2022/08/21 06:06:40;;;;;;;15.95;5.30;;;;;;;;;;5052189;28;20029;-74
2022/08/21 06:09:06;;;;;;;19.83;5.85;;;;;;;;;;5053050;28;20033;-75
2022/08/21 06:11:32;;;;;;;14.35;4.82;;;;;;;;;;5031606;28;20116;-74
2022/08/21 06:13:58;;;;;;;8.00;4.70;;;;;;;;;;5054575;28;20033;-74
2022/08/21 06:16:25;;;;;;;13.90;5.40;;;;;;;;;;5038952;28;20034;-74
2022/08/21 06:18:51;;;;;;;28.27;17.60;;;;;;;;;;5054095;28;20041;-74
2022/08/21 06:21:17;;;;;;;35.05;17.30;;;;;;;;;;5043513;28;20096;-73
2022/08/21 06:23:43;;;;;;;16.33;5.60;;;;;;;;;;5064785;28;20141;-73
2022/08/21 06:26:10;;;;;;;11.25;5.22;;;;;;;;;;5050228;28;20020;-73
2022/08/21 06:28:37;;;;;;;14.57;4.90;;;16.20;99.90;;;;;;5057989;28;20096;-73
2022/08/21 06:31:14;;;;;;;14.60;4.35;;;;;;;;;;5045610;28;20036;-72
2022/08/21 06:33:40;;;;;;;19.73;5.43;;;;;;;;;;5051087;28;20085;-72
2022/08/21 06:36:06;;;;;;;11.93;5.15;;;;;;;;;;5056366;28;20025;-73
2022/08/21 06:38:32;;;;;;;12.98;5.40;;;;;;;;;;5055932;28;20080;-74
2022/08/21 06:40:58;;;;;;;10.88;5.32;;;;;;;;;;5045856;28;20064;-74
2022/08/21 06:43:24;;;;;;;8.95;3.70;;;;;;;;;;5053356;28;20075;-73
2022/08/21 06:45:50;;;;;;;13.10;4.38;;;;;;;;;;5038160;28;20497;-74
2022/08/21 06:48:16;;;;;;;12.18;4.45;;;;;;;;;;5062637;28;20468;-73
2022/08/21 06:50:42;;;;;;;10.43;3.90;;;;;;;;;;5047268;28;20065;-74
2022/08/21 06:53:12;;;;;;;11.70;3.67;;;;;;;;;;5040159;28;22961;-75
2022/08/21 06:55:39;;;;;;;16.75;3.50;;;;;;;;;;5053931;28;20024;-75
2022/08/21 06:58:06;;;;;;;13.10;3.63;;;;;;;;;;5061195;28;20028;-73
2022/08/21 07:00:32;;;;;;;10.07;3.63;;;;;;;;;;5050190;28;20071;-72
2022/08/21 07:02:58;;;;;;;10.15;2.97;;;;;;;;;;5050349;28;20404;-73
2022/08/21 07:05:28;;;;;;;7.57;3.10;;;;;;;;;;5037702;28;20035;-73
2022/08/21 07:07:54;;;;;;;10.63;3.25;;;;;;;;;;5068371;28;20170;-74
2022/08/21 07:10:20;;;;;;;13.32;2.53;;;;;;;;;;5048128;28;20120;-72
2022/08/21 07:12:46;;;;;;;8.98;3.33;;;;;;;;;;5040903;28;20100;-72
2022/08/21 07:15:12;;;;;;;18.25;3.42;;;;;;;;;;5048915;28;20116;-72
2022/08/21 07:17:38;;;;;;;11.18;3.22;;;;;;;;;;5034453;28;20053;-73
2022/08/21 07:20:05;;;;;;;11.40;2.88;;;;;;;;;;5052699;28;20496;-72
2022/08/21 07:22:31;;;;;;;12.35;3.28;;;18.70;99.90;;;;;;5031547;28;20554;-72
2022/08/21 07:24:57;;;;;;;11.68;4.18;;;;;;;;;;5038285;28;20123;-72
2022/08/21 07:27:23;;;;;;;10.93;3.35;;;;;;;;;;5033104;28;20080;-76
2022/08/21 07:29:49;;;;;;;12.95;3.80;;;;;;;;;;5040407;28;20064;-73
2022/08/21 07:32:15;;;;;;;12.27;3.38;;;;;;;;;;5040880;28;20104;-73
2022/08/21 07:34:42;;;;;;;10.10;2.92;;;;;;;;;;5041791;28;20037;-76
2022/08/21 07:37:08;;;;;;;14.27;3.17;;;;;;;;;;5029222;28;20042;-73
2022/08/21 07:39:34;;;;;;;11.30;3.28;;;;;;;;;;5032360;28;20045;-72
2022/08/21 07:42:00;;;;;;;10.18;2.95;;;;;;;;;;5048247;28;20048;-72
2022/08/21 07:44:26;;;;;;;17.33;3.88;;;;;;;;;;5062301;28;20045;-74
2022/08/21 07:46:52;;;;;;;10.13;2.75;;;;;;;;;;5045144;28;20119;-73
2022/08/21 07:49:18;;;;;;;11.63;2.92;;;;;;;;;;5048463;28;20112;-72
2022/08/21 07:51:44;;;;;;;9.35;2.90;;;;;;;;;;5042052;28;20091;-73
2022/08/21 07:54:10;;;;;;;15.40;3.45;;;;;;;;;;5059809;28;20096;-72
2022/08/21 07:56:36;;;;;;;12.25;3.20;;;;;;;;;;5028742;28;20124;-72
2022/08/21 07:59:02;;;;;;;8.55;3.00;;;;;;;;;;5047059;28;20029;-73
2022/08/21 08:01:29;;;;;;;11.60;3.20;;;;;;;;;;5027868;28;20503;-74
2022/08/21 08:03:56;;;;;;;17.30;2.92;;;;;;;;;;5048937;28;20052;-75
2022/08/21 08:06:22;;;;;;;11.70;3.33;;;;;;;;;;5054571;28;20032;-73
2022/08/21 08:08:49;;;;;;;13.48;3.13;;;;;;;;;;5067730;28;20408;-73
2022/08/21 08:11:15;;;;;;;9.70;2.25;;;;;;;;;;5045220;28;20025;-75
2022/08/21 08:13:49;;;;;;;10.30;2.13;;;22.60;99.90;;;;;;5042257;28;20036;-73
2022/08/21 08:16:15;;;;;;;10.90;2.83;;;22.20;99.90;;;;;;5037612;28;20025;-74
2022/08/21 08:18:41;;;;;;;10.23;2.40;;;;;;;;;;5028912;28;20100;-77
2022/08/21 08:21:08;;;;;;;9.38;2.67;;;;;;;;;;5050513;28;20027;-75
2022/08/21 08:23:34;;;;;;;8.25;2.45;;;;;;;;;;5047012;28;20033;-77
2022/08/21 08:26:02;;;;;;;15.55;3.00;;;;;;;;;;5034468;28;20088;-77
2022/08/21 08:28:28;;;;;;;12.48;3.03;;;22.20;99.90;;;;;;5044269;28;20057;-76
2022/08/21 08:30:54;;;;;;;14.13;3.15;;;;;;;;;;5040937;28;20080;-75
2022/08/21 08:33:20;;;;;;;9.68;2.60;;;;;;;;;;5045055;28;20041;-76
2022/08/21 08:35:48;;;;;;;10.70;2.90;;;22.10;99.90;;;;;;5052161;28;20050;-75
2022/08/21 08:38:18;;;;;;;11.32;2.72;;;;;;;;;;5054959;28;20111;-76
2022/08/21 08:40:53;;;;;;;16.67;2.63;;;;;;;;;;5053215;28;20029;-77
2022/08/21 08:43:19;;;;;;;22.65;5.10;;;23.60;99.90;;;;;;5039937;28;20037;-77
2022/08/21 08:45:48;;;;;;;13.88;3.20;;;;;;;;;;5037035;28;20084;-76
2022/08/21 08:48:26;;;;;;;10.55;2.55;;;23.20;99.90;;;;;;5035613;28;20068;-75
2022/08/21 08:50:56;;;;;;;11.07;3.22;;;23.20;99.90;;;;;;5036955;28;20120;-76
2022/08/21 08:53:57;;;;;;;11.82;2.65;;;23.30;99.90;;;;;;5053260;28;20084;-76
2022/08/21 08:56:29;;;;;;;13.05;2.63;;;;;;;;;;5036183;28;20028;-76
2022/08/21 08:59:01;;;;;;;12.57;2.95;;;23.90;99.90;;;;;;5044520;28;20101;-77
2022/08/21 09:01:27;;;;;;;10.25;2.47;;;;;;;;;;5063978;28;20131;-75
2022/08/21 09:03:53;;;;;;;12.32;2.60;;;;;;;;;;5063181;28;20061;-75
2022/08/21 09:06:35;;;;;;;8.80;1.73;;;;;;;;;;5042694;28;20025;-74
2022/08/21 09:09:20;;;;;;;17.98;2.70;;;;;;;;;;5063801;28;20433;-79
2022/08/21 09:11:58;;;;;;;12.40;2.58;;;23.60;99.90;;;;;;5059114;28;20484;-79
2022/08/21 09:14:34;;;;;;;13.82;3.13;;;;;;;;;;5058113;28;20057;-79
2022/08/21 09:17:17;;;;;;;10.00;2.42;;;23.40;99.90;;;;;;5047075;28;20398;-80
2022/08/21 09:19:55;;;;;;;12.02;2.58;;;;;;;;;;5057701;28;20039;-81
2022/08/21 09:22:35;;;;;;;12.60;2.20;;;;;;;;;;5041522;28;20051;-77
2022/08/21 09:25:19;;;;;;;9.95;2.47;;;;;;;;;;5051860;28;20029;-73
2022/08/21 09:27:45;;;;;;;9.45;2.30;;;;;;;;;;5040912;28;20090;-73
2022/08/21 09:30:11;;;;;;;11.15;2.47;;;25.80;99.90;;;;;;5064901;28;20500;-73
2022/08/21 09:32:37;;;;;;;11.57;2.70;;;;;;;;;;5043230;28;20551;-75
2022/08/21 09:35:16;;;;;;;12.02;2.88;;;26.70;99.90;;;;;;5066407;28;20029;-71
2022/08/21 09:38:08;;;;;;;9.90;2.00;;;;;;;;;;5051973;28;20619;-74
2022/08/21 09:40:37;;;;;;;11.82;2.13;;;;;;;;;;5043118;28;20051;-73
2022/08/21 09:43:06;;;;;;;13.93;2.20;;;;;;;;;;5060064;28;20090;-76
2022/08/21 09:45:33;;;;;;;10.93;1.98;;;;;;;;;;5043085;28;20075;-76
2022/08/21 09:48:11;;;;;;;15.32;3.15;;;;;;;;;;5055906;28;20538;-77
2022/08/21 09:50:38;;;;;;;11.25;2.17;;;;;;;;;;5071408;28;20028;-76
2022/08/21 09:53:04;;;;;;;9.77;2.03;;;;;;;;;;5038062;28;20032;-77
2022/08/21 09:58:18;;;;;;;9.70;2.10;;;;;;;;;;5042192;28;20068;-77
2022/08/21 10:00:44;;;;;;;8.40;2.10;;;;;;;;;;5056014;28;20033;-78
2022/08/21 10:03:10;;;;;;;9.02;2.03;;;;;;;;;;5030592;28;20497;-78
2022/08/21 10:05:37;;;;;;;6.13;2.40;;;;;;;;;;5041350;28;20045;-77
2022/08/21 10:08:05;;;;;;;11.82;1.67;;;;;;;;;;5057140;28;20067;-78
2022/08/21 10:10:32;;;;;;;8.18;2.05;;;;;;;;;;5051569;28;20484;-78
2022/08/21 10:13:16;;;;;;;9.40;1.83;;;;;;;;;;5049267;28;20358;-78
2022/08/21 10:15:54;;;;;;;7.85;2.30;;;;;;;;;;5046298;28;20420;-78
2022/08/21 10:18:35;;;;;;;7.07;2.20;;;27.00;98.30;;;;;;5049397;28;20053;-76
2022/08/21 10:21:04;;;;;;;6.95;1.80;;;;;;;;;;5051855;28;20040;-77
2022/08/21 10:23:33;;;;;;;12.02;3.00;;;;;;;;;;5039495;28;20032;-77
2022/08/21 10:26:05;;;;;;;7.97;1.90;;;;;;;;;;5037638;28;20461;-77
2022/08/21 10:28:34;;;;;;;13.07;1.90;;;;;;;;;;5059133;28;20044;-77
2022/08/21 10:31:03;;;;;;;9.02;1.95;;;;;;;;;;5044710;28;20038;-78
2022/08/21 10:33:41;;;;;;;9.32;2.05;;;;;;;;;;5041022;28;20048;-77
2022/08/21 10:36:16;;;;;;;10.88;2.80;;;;;;;;;;5047128;28;20034;-73
2022/08/21 10:38:58;;;;;;;12.80;3.17;;;;;;;;;;5062825;28;20396;-77
2022/08/21 10:41:32;;;;;;;9.98;2.63;;;;;;;;;;5048487;28;20453;-76
2022/08/21 10:44:23;;;;;;;8.80;2.08;;;24.00;99.90;;;;;;5034053;28;20493;-76
2022/08/21 10:47:05;;;;;;;10.63;2.47;;;;;;;;;;5035880;28;20029;-76
2022/08/21 10:49:37;;;;;;;13.80;2.65;;;;;;;;;;5057502;28;20455;-76
2022/08/21 10:52:22;;;;;;;9.20;2.20;;;;;;;;;;5055409;28;20021;-75
2022/08/21 10:54:59;;;;;;;8.80;2.33;;;26.70;99.90;;;;;;5049020;28;20029;-76
2022/08/21 10:57:59;;;;;;;8.27;1.88;;;26.40;99.90;;;;;;5047943;28;20045;-75
2022/08/21 11:00:34;;;;;;;10.38;2.55;;;26.20;99.90;;;;;;5023521;28;20064;-73
2022/08/21 11:03:05;;;;;;;6.95;2.13;;;;;;;;;;5079337;28;20036;-74
2022/08/21 11:05:38;;;;;;;9.48;2.25;;;;;;;;;;5050257;28;20039;-76
2022/08/21 11:08:05;;;;;;;9.50;1.85;;;;;;;;;;5084310;28;20024;-76
2022/08/21 11:10:41;;;;;;;6.95;1.77;;;;;;;;;;5085518;28;20133;-76
2022/08/21 11:13:18;;;;;;;8.77;2.22;;;;;;;;;;5048873;28;20033;-76
2022/08/21 11:15:54;;;;;;;9.15;2.60;;;27.30;97.50;;;;;;5050666;28;20038;-76
2022/08/21 11:18:22;;;;;;;10.63;1.70;;;;;;;;;;5040657;28;20045;-78
2022/08/21 11:20:48;;;;;;;10.10;2.63;;;;;;;;;;5030740;28;20128;-77
2022/08/21 11:23:21;;;;;;;6.13;1.75;;;;;;;;;;5040718;28;20041;-77
2022/08/21 11:25:52;;;;;;;7.63;1.70;;;;;;;;;;5046712;28;20051;-78
2022/08/21 11:28:21;;;;;;;5.90;1.75;;;;;;;;;;5051570;28;20082;-78
2022/08/21 11:31:05;;;;;;;7.70;1.58;;;28.20;92.70;;;;;;5040124;28;20037;-78
2022/08/21 11:33:38;;;;;;;6.65;1.52;;;;;;;;;;5035146;28;20040;-77
2022/08/21 11:36:07;;;;;;;15.32;1.67;;;;;;;;;;5066765;28;20029;-78
2022/08/21 11:38:34;;;;;;;4.57;1.38;;;;;;;;;;5044723;28;20032;-77
2022/08/21 11:41:09;;;;;;;6.50;1.35;;;;;;;;;;5048000;28;20021;-77
2022/08/21 11:43:35;;;;;;;8.55;2.00;;;;;;;;;;5061307;28;20385;-77
2022/08/21 11:46:13;;;;;;;5.15;1.10;;;;;;;;;;5070217;28;20029;-77
2022/08/21 11:49:06;;;;;;;5.60;1.58;;;25.30;98.10;;;;;;5033274;28;20098;-78
2022/08/21 11:51:46;;;;;;;9.35;1.40;;;25.40;98.60;;;;;;5056846;28;20025;-78
2022/08/21 11:54:25;;;;;;;10.52;1.90;;;;;;;;;;5031890;28;20120;-78
2022/08/21 11:57:26;;;;;;;8.30;1.80;;;25.60;99.10;;;;;;5038745;28;20035;-77
2022/08/21 11:59:52;;;;;;;6.35;1.30;;;;;;;;;;5037569;28;20128;-77
2022/08/21 12:02:22;;;;;;;5.90;1.60;;;25.60;98.80;;;;;;5041331;28;20109;-77
2022/08/21 12:04:56;;;;;;;6.07;1.10;;;;;;;;;;5034263;28;20436;-77
2022/08/21 12:07:41;;;;;;;4.88;0.90;;;;;;;;;;5051245;28;20071;-77
2022/08/21 12:10:14;;;;;;;6.63;1.35;;;25.30;99.90;;;;;;5042862;28;20040;-77
2022/08/21 12:12:41;;;;;;;5.50;1.20;;;;;;;;;;5054739;28;20021;-77
2022/08/21 12:15:28;;;;;;;5.50;1.70;;;24.90;99.90;;;;;;5037058;28;20520;-77
2022/08/21 12:17:59;;;;;;;5.95;1.17;;;;;;;;;;5046422;28;20654;-77
2022/08/21 12:20:40;;;;;;;4.55;1.20;;;;;;;;;;5046770;28;20029;-77
2022/08/21 12:23:06;;;;;;;5.90;1.30;;;;;;;;;;5041859;28;20948;-76
2022/08/21 12:25:40;;;;;;;4.80;1.40;;;;;;;;;;5052218;28;20033;-76
2022/08/21 12:28:09;;;;;;;4.68;1.15;;;;;;;;;;5054745;28;20036;-76
2022/08/21 12:30:43;;;;;;;6.18;1.75;;;24.10;99.90;;;;;;5053955;28;20037;-76
2022/08/21 12:33:18;;;;;;;6.40;1.17;;;;;;;;;;5034439;28;20112;-76
2022/08/21 12:35:44;;;;;;;3.95;1.33;;;;;;;;;;5041603;28;20083;-76
2022/08/21 12:38:33;;;;;;;11.20;2.03;;;24.30;99.90;;;;;;5054305;28;20059;-77
2022/08/21 12:41:04;;;;;;;4.75;1.10;;;;;;;;;;5056816;28;20503;-76
2022/08/21 12:43:42;;;;;;;7.38;1.80;;;;;;;;;;5044171;28;20104;-76
2022/08/21 12:46:16;;;;;;;6.82;1.73;;;24.40;99.90;;;;;;5058666;28;20025;-75
2022/08/21 12:48:49;;;;;;;5.85;1.70;;;;;;;;;;5035201;28;20029;-75
2022/08/21 12:51:16;;;;;;;5.72;1.60;;;;;;;;;;5055264;28;20021;-75
2022/08/21 12:53:45;;;;;;;6.68;1.27;;;24.60;99.90;;;;;;5054688;28;20029;-76
2022/08/21 12:56:14;;;;;;;6.43;1.30;;;;;;;;;;5061314;28;20049;-75
2022/08/21 12:59:01;;;;;;;6.80;2.03;;;24.60;99.90;;;;;;5034499;28;20017;-76
2022/08/21 13:01:35;;;;;;;8.73;1.50;;;;;;;;;;5048058;28;21269;-78
2022/08/21 13:04:09;;;;;;;8.98;1.80;;;24.60;99.90;;;;;;5045682;28;20094;-77
2022/08/21 13:06:41;;;;;;;7.72;1.98;;;;;;;;;;5026658;28;20074;-77
2022/08/21 13:09:07;;;;;;;;;;;;;;;;;;5041116;28;20121;-75
2022/08/21 13:11:33;;;;;;;7.45;1.60;;;;;;;;;;5035893;28;20012;-78
2022/08/21 13:14:00;;;;;;;6.28;2.08;;;;;;;;;;5045933;28;20061;-78
2022/08/21 13:16:28;;;;;;;8.90;1.77;;;;;;;;;;5046101;28;20033;-77
2022/08/21 13:19:05;;;;;;;7.57;2.08;;;24.90;99.90;;;;;;5037662;28;20059;-76
2022/08/21 13:21:32;;;;;;;6.10;1.85;;;;;;;;;;5047579;28;20033;-74
2022/08/21 13:24:18;;;;;;;7.20;1.08;;;;;;;;;;5046987;28;20063;-74
2022/08/21 13:26:44;;;;;;;12.63;1.65;;;;;;;;;;5042321;28;20033;-74
2022/08/21 13:29:11;;;;;;;6.20;1.80;;;;;;;;;;5066377;28;20021;-74
2022/08/21 13:31:39;;;;;;;6.13;1.48;;;;;;;;;;5057915;28;20151;-74
2022/08/21 13:34:07;;;;;;;8.00;2.15;;;;;;;;;;5040667;28;20071;-74
2022/08/21 13:36:35;;;;;;;8.75;1.40;;;;;;;;;;5057456;28;20052;-74
2022/08/21 13:39:04;;;;;;;5.15;1.48;;;25.60;97.20;;;;;;5052010;28;20033;-74
2022/08/21 13:41:36;;;;;;;8.35;1.58;;;25.40;98.50;;;;;;5049308;28;20507;-74
2022/08/21 13:44:07;;;;;;;4.00;1.20;;;;;;;;;;5059468;28;20368;-75
2022/08/21 13:46:34;;;;;;;7.72;1.50;;;;;;;;;;5054207;28;20399;-74
2022/08/21 13:49:01;;;;;;;6.55;1.50;;;;;;;;;;5033074;28;20416;-75
2022/08/21 13:51:27;;;;;;;5.90;1.40;;;;;;;;;;5054710;28;20036;-74
2022/08/21 13:53:54;;;;;;;5.00;1.42;;;26.20;99.40;;;;;;5048649;28;20033;-74
2022/08/21 13:56:25;;;;;;;7.25;1.50;;;;;;;;;;5050631;28;20029;-74
2022/08/21 13:58:51;;;;;;;5.50;1.67;;;;;;;;;;5049909;28;20032;-74
2022/08/21 14:01:39;;;;;;;5.70;1.40;;;;;;;;;;5053782;28;20029;-74
2022/08/21 14:04:16;;;;;;;5.07;1.30;;;;;;;;;;5055297;28;20111;-74
2022/08/21 14:06:42;;;;;;;5.35;1.27;;;;;;;;;;5053592;28;20014;-75
2022/08/21 14:09:13;;;;;;;4.35;1.48;;;;;;;;;;5045658;28;20044;-76
2022/08/21 14:11:40;;;;;;;6.68;1.50;;;;;;;;;;5019486;28;20051;-76
2022/08/21 14:14:26;;;;;;;10.38;2.95;;;26.60;91.10;;;;;;5044349;28;20035;-76
2022/08/21 14:16:54;;;;;;;6.75;1.70;;;;;;;;;;5048500;28;20029;-75
2022/08/21 14:19:24;;;;;;;6.03;1.50;;;;;;;;;;5037776;28;20517;-76
2022/08/21 14:21:51;;;;;;;4.97;1.73;;;;;;;;;;5055536;28;20028;-76
2022/08/21 14:24:23;;;;;;;30.40;21.00;;;;;;;;;;5059800;28;20073;-76
2022/08/21 14:26:53;;;;;;;11.57;6.75;;;;;;;;;;5052655;28;20388;-76
2022/08/21 14:29:21;;;;;;;4.32;1.17;;;;;;;;;;5039859;28;20040;-76
2022/08/21 14:31:55;;;;;;;4.82;1.45;;;;;;;;;;5045216;28;20040;-75
2022/08/21 14:34:21;;;;;;;3.50;0.95;;;;;;;;;;5043232;28;20024;-76
2022/08/21 14:36:48;;;;;;;7.10;1.90;;;;;;;;;;5056913;28;20053;-76